createdAt,value
2017-12-26T00:01:33.255Z,100730.61
2017-12-26T00:04:01.941Z,100723.38
2017-12-26T00:06:30.981Z,100731.17
2017-12-26T00:09:00.441Z,100734.22
2017-12-26T00:11:29.063Z,100738.58
2017-12-26T00:13:58.585Z,100728.77
2017-12-26T00:16:27.311Z,100733.55
2017-12-26T00:18:55.897Z,100733.58
2017-12-26T00:21:24.961Z,100733.36
2017-12-26T00:23:53.675Z,100729.61
2017-12-26T00:26:22.362Z,100737.52
2017-12-26T00:28:51.157Z,100744.05
2017-12-26T00:31:19.780Z,100744.22
2017-12-26T00:33:49.241Z,100743.56
2017-12-26T00:36:18.026Z,100740.98
2017-12-26T00:38:46.711Z,100739.59
2017-12-26T00:41:15.354Z,100740.55
2017-12-26T00:43:44.246Z,100746.94
2017-12-26T00:46:13.691Z,100749.80
2017-12-26T00:48:42.375Z,100749.27
2017-12-26T00:51:11.271Z,100741.98
2017-12-26T00:53:39.895Z,100745.13
2017-12-26T00:56:09.257Z,100746.13
2017-12-26T00:58:38.204Z,100749.81
2017-12-26T01:01:07.649Z,100750.55
2017-12-26T01:03:36.313Z,100744.23
2017-12-26T01:06:05.078Z,100741.58
2017-12-26T01:08:34.529Z,100741.27
2017-12-26T01:11:03.167Z,100734.04
2017-12-26T01:13:32.656Z,100727.66
2017-12-26T01:16:02.123Z,100728.25
2017-12-26T01:18:30.700Z,100730.76
2017-12-26T01:20:59.312Z,100731.13
2017-12-26T01:23:27.871Z,100726.81
2017-12-26T01:25:56.557Z,100729.59
2017-12-26T01:28:25.243Z,100732.10
2017-12-26T01:30:53.884Z,100733.11
2017-12-26T01:33:22.615Z,100732.70
2017-12-26T01:35:51.670Z,100722.98
2017-12-26T01:38:20.337Z,100719.09
2017-12-26T01:40:49.754Z,100723.08
2017-12-26T01:43:19.247Z,100722.69
2017-12-26T01:45:48.713Z,100725.50
2017-12-26T01:48:17.252Z,100718.06
2017-12-26T01:50:45.971Z,100713.48
2017-12-26T01:53:14.657Z,100710.81
2017-12-26T01:55:43.310Z,100708.77
2017-12-26T01:58:12.336Z,100708.59
2017-12-26T02:00:41.068Z,100712.53
2017-12-26T02:03:10.464Z,100706.52
2017-12-26T02:05:39.979Z,100703.06
2017-12-26T02:08:09.439Z,100704.63
2017-12-26T02:10:39.868Z,100702.89
2017-12-26T02:13:08.473Z,100702.95
2017-12-26T02:15:37.129Z,100705.13
2017-12-26T02:18:05.816Z,100704.09
2017-12-26T02:20:34.788Z,100703.91
2017-12-26T02:23:03.501Z,100701.87
2017-12-26T02:25:32.084Z,100694.25
2017-12-26T02:28:01.076Z,100689.80
2017-12-26T02:30:29.812Z,100684.56
2017-12-26T02:32:59.269Z,100683.28
2017-12-26T02:35:28.054Z,100683.46
2017-12-26T02:37:56.741Z,100689.75
2017-12-26T02:40:25.425Z,100695.61
2017-12-26T02:42:54.200Z,100700.78
2017-12-26T02:45:22.894Z,100700.28
2017-12-26T02:47:51.533Z,100707.70
2017-12-26T02:50:21.026Z,100710.05
2017-12-26T02:52:50.489Z,100706.59
2017-12-26T02:55:19.136Z,100704.20
2017-12-26T02:57:47.900Z,100695.72
2017-12-26T03:00:16.592Z,100694.22
2017-12-26T03:02:46.055Z,100688.84
2017-12-26T03:05:14.807Z,100686.80
2017-12-26T03:07:43.425Z,100683.27
2017-12-26T03:10:12.013Z,100682.30
2017-12-26T03:12:40.896Z,100677.42
2017-12-26T03:15:09.527Z,100683.65
2017-12-26T03:17:38.992Z,100683.36
2017-12-26T03:20:07.668Z,100682.12
2017-12-26T03:22:36.364Z,100690.89
2017-12-26T03:25:05.153Z,100687.27
2017-12-26T03:27:33.933Z,100682.13
2017-12-26T03:30:02.590Z,100680.87
2017-12-26T03:32:31.304Z,100679.33
2017-12-26T03:35:00.041Z,100686.61
2017-12-26T03:37:29.366Z,100684.70
2017-12-26T03:39:58.027Z,100683.42
2017-12-26T03:42:27.497Z,100684.78
2017-12-26T03:44:56.060Z,100680.20
2017-12-26T03:47:24.954Z,100673.71
2017-12-26T03:49:53.543Z,100668.14
2017-12-26T03:52:22.218Z,100667.11
2017-12-26T03:54:50.861Z,100664.79
2017-12-26T03:57:20.619Z,100670.56
2017-12-26T03:59:49.273Z,100665.36
2017-12-26T04:02:17.991Z,100668.00
2017-12-26T04:04:46.677Z,100665.98
2017-12-26T04:07:15.364Z,100669.67
2017-12-26T04:09:44.046Z,100671.30
2017-12-26T04:12:12.944Z,100671.70
2017-12-26T04:14:41.629Z,100668.16
2017-12-26T04:17:10.296Z,100665.66
2017-12-26T04:19:39.063Z,100670.92
2017-12-26T04:22:07.785Z,100671.01
2017-12-26T04:24:36.423Z,100671.50
2017-12-26T04:27:05.916Z,100671.72
2017-12-26T04:29:35.340Z,100666.67
2017-12-26T04:32:04.063Z,100665.80
2017-12-26T04:34:32.668Z,100662.07
2017-12-26T04:37:01.336Z,100659.67
2017-12-26T04:39:30.120Z,100654.88
2017-12-26T04:41:58.819Z,100649.34
2017-12-26T04:44:27.492Z,100654.61
2017-12-26T04:46:56.178Z,100656.61
2017-12-26T04:49:24.872Z,100656.84
2017-12-26T04:51:53.544Z,100660.86
2017-12-26T04:54:22.185Z,100662.36
2017-12-26T04:56:51.803Z,100663.38
2017-12-26T04:59:20.446Z,100663.15
2017-12-26T05:01:49.215Z,100666.82
2017-12-26T05:04:17.881Z,100666.38
2017-12-26T05:06:46.549Z,100666.16
2017-12-26T05:09:15.272Z,100662.87
2017-12-26T05:11:43.956Z,100662.84
2017-12-26T05:14:12.644Z,100663.21
2017-12-26T05:16:41.301Z,100664.55
2017-12-26T05:19:10.168Z,100660.86
2017-12-26T05:21:39.622Z,100659.55
2017-12-26T05:24:08.309Z,100659.33
2017-12-26T05:26:37.038Z,100659.46
2017-12-26T05:29:06.458Z,100661.12
2017-12-26T05:31:35.901Z,100662.39
2017-12-26T05:34:05.816Z,100664.59
2017-12-26T05:36:34.461Z,100662.49
2017-12-26T05:39:03.154Z,100657.31
2017-12-26T05:41:31.874Z,100661.53
2017-12-26T05:44:00.460Z,100658.86
2017-12-26T05:46:29.107Z,100660.17
2017-12-26T05:48:57.833Z,100649.14
2017-12-26T05:51:26.471Z,100649.86
2017-12-26T05:53:55.204Z,100653.84
2017-12-26T05:56:23.989Z,100650.17
2017-12-26T05:58:52.575Z,100655.63
2017-12-26T06:01:21.163Z,100662.09
2017-12-26T06:03:49.948Z,100651.98
2017-12-26T06:06:18.528Z,100649.02
2017-12-26T06:08:47.214Z,100651.20
2017-12-26T06:11:16.410Z,100653.60
2017-12-26T06:13:44.996Z,100651.34
2017-12-26T06:16:13.668Z,100648.62
2017-12-26T06:18:42.774Z,100656.02
2017-12-26T06:21:11.430Z,100654.55
2017-12-26T06:23:40.147Z,100656.48
2017-12-26T06:26:08.832Z,100652.91
2017-12-26T06:28:37.420Z,100652.45
2017-12-26T06:31:06.009Z,100656.23
2017-12-26T06:33:34.714Z,100658.02
2017-12-26T06:36:03.356Z,100657.19
2017-12-26T06:38:32.049Z,100657.00
2017-12-26T06:41:00.935Z,100656.64
2017-12-26T06:43:29.587Z,100658.77
2017-12-26T06:45:58.307Z,100656.20
2017-12-26T06:48:27.348Z,100657.92
2017-12-26T06:50:56.808Z,100657.42
2017-12-26T06:53:25.481Z,100658.33
2017-12-26T06:55:54.387Z,100655.98
2017-12-26T06:58:23.020Z,100652.55
2017-12-26T07:00:51.687Z,100662.83
2017-12-26T07:03:20.754Z,100666.20
2017-12-26T07:05:49.484Z,100671.43
2017-12-26T07:08:18.072Z,100668.95
2017-12-26T07:10:46.807Z,100666.03
2017-12-26T07:13:16.265Z,100662.22
2017-12-26T07:15:44.820Z,100664.16
2017-12-26T07:18:13.428Z,100663.51
2017-12-26T07:20:47.489Z,100658.41
2017-12-26T07:23:16.945Z,100665.39
2017-12-26T07:25:45.630Z,100667.59
2017-12-26T07:28:14.254Z,100671.36
2017-12-26T07:30:43.769Z,100680.38
2017-12-26T07:33:13.217Z,100676.94
2017-12-26T07:35:41.909Z,100674.04
2017-12-26T07:38:10.902Z,100673.66
2017-12-26T07:40:41.633Z,100677.48
2017-12-26T07:43:10.307Z,100677.02
2017-12-26T07:45:38.951Z,100679.18
2017-12-26T07:48:08.411Z,100669.86
2017-12-26T07:50:37.090Z,100676.43
2017-12-26T07:53:05.994Z,100671.25
2017-12-26T07:55:34.670Z,100672.81
2017-12-26T07:58:03.313Z,100672.34
2017-12-26T08:00:32.809Z,100673.50
2017-12-26T08:03:02.269Z,100668.92
2017-12-26T08:05:30.942Z,100670.31
2017-12-26T08:07:59.687Z,100668.78
2017-12-26T08:10:29.034Z,100666.40
2017-12-26T08:12:57.622Z,100665.23
2017-12-26T08:15:26.511Z,100672.64
2017-12-26T08:17:55.197Z,100659.84
2017-12-26T08:20:23.882Z,100659.23
2017-12-26T08:22:53.600Z,100669.00
2017-12-26T08:25:22.286Z,100665.19
2017-12-26T08:27:50.925Z,100658.83
2017-12-26T08:30:20.621Z,100653.63
2017-12-26T08:32:50.075Z,100649.72
2017-12-26T08:35:18.762Z,100656.12
2017-12-26T08:37:47.368Z,100651.08
2017-12-26T08:40:16.091Z,100663.48
2017-12-26T08:42:44.818Z,100662.38
2017-12-26T08:45:13.812Z,100654.48
2017-12-26T08:47:42.444Z,100648.11
2017-12-26T08:50:11.907Z,100642.59
2017-12-26T08:52:40.692Z,100639.11
2017-12-26T08:55:09.378Z,100627.16
2017-12-26T08:57:37.956Z,100623.37
2017-12-26T09:00:07.008Z,100615.88
2017-12-26T09:02:36.455Z,100614.06
2017-12-26T09:05:05.042Z,100605.66
2017-12-26T09:07:34.134Z,100601.91
2017-12-26T09:10:02.820Z,100603.49
2017-12-26T09:12:31.407Z,100608.41
2017-12-26T09:15:00.338Z,100600.58
2017-12-26T09:17:29.756Z,100602.91
2017-12-26T09:19:58.486Z,100594.97
2017-12-26T09:22:27.477Z,100597.10
2017-12-26T09:24:56.109Z,100596.41
2017-12-26T09:27:25.575Z,100597.00
2017-12-26T09:29:54.457Z,100596.52
2017-12-26T09:32:23.822Z,100588.42
2017-12-26T09:34:52.508Z,100581.72
2017-12-26T09:37:21.184Z,100573.16
2017-12-26T09:39:49.880Z,100567.05
2017-12-26T09:42:18.566Z,100562.02
2017-12-26T09:44:47.351Z,100564.27
2017-12-26T09:47:15.994Z,100549.56
2017-12-26T09:49:44.722Z,100545.81
2017-12-26T09:52:13.455Z,100541.05
2017-12-26T09:54:42.916Z,100533.69
2017-12-26T09:57:11.537Z,100533.48
2017-12-26T09:59:41.307Z,100522.97
2017-12-26T10:02:09.994Z,100521.50
2017-12-26T10:04:39.503Z,100518.10
2017-12-26T10:07:08.183Z,100511.06
2017-12-26T10:09:36.824Z,100502.03
2017-12-26T10:12:06.312Z,100502.61
2017-12-26T10:14:35.839Z,100501.00
2017-12-26T10:17:04.567Z,100489.05
2017-12-26T10:19:33.256Z,100487.87
2017-12-26T10:22:02.292Z,100474.61
2017-12-26T10:24:31.643Z,100469.59
2017-12-26T10:27:00.232Z,100471.37
2017-12-26T10:29:29.735Z,100467.59
2017-12-26T10:31:58.426Z,100463.58
2017-12-26T10:34:27.111Z,100453.38
2017-12-26T10:36:55.789Z,100447.98
2017-12-26T10:39:24.491Z,100438.94
2017-12-26T10:41:53.058Z,100434.94
2017-12-26T10:44:21.799Z,100422.95
2017-12-26T10:46:51.255Z,100422.09
2017-12-26T10:49:19.940Z,100420.91
2017-12-26T10:51:48.933Z,100415.77
2017-12-26T10:54:18.134Z,100402.75
2017-12-26T10:56:46.819Z,100401.80
2017-12-26T10:59:15.495Z,100392.84
2017-12-26T11:01:44.192Z,100389.11
2017-12-26T11:04:12.866Z,100385.89
2017-12-26T11:06:41.969Z,100376.11
2017-12-26T11:09:10.654Z,100370.91
2017-12-26T11:11:39.341Z,100364.89
2017-12-26T11:14:08.391Z,100361.94
2017-12-26T11:16:37.034Z,100360.50
2017-12-26T11:19:05.699Z,100365.64
2017-12-26T11:21:34.443Z,100364.06
2017-12-26T11:24:03.899Z,100362.80
2017-12-26T11:26:32.585Z,100358.31
2017-12-26T11:29:01.776Z,100352.20
2017-12-26T11:31:30.417Z,100344.91
2017-12-26T11:33:59.148Z,100338.06
2017-12-26T11:36:27.943Z,100339.56
2017-12-26T11:38:56.615Z,100333.55
2017-12-26T11:41:25.309Z,100330.11
2017-12-26T11:43:54.000Z,100334.61
2017-12-26T11:46:22.668Z,100322.69
2017-12-26T11:48:51.395Z,100324.03
2017-12-26T11:51:20.013Z,100318.08
2017-12-26T11:53:48.714Z,100311.11
2017-12-26T11:56:17.393Z,100297.79
2017-12-26T11:58:46.137Z,100293.42
2017-12-26T12:01:14.865Z,100296.64
2017-12-26T12:03:43.550Z,100289.44
2017-12-26T12:06:12.237Z,100282.00
2017-12-26T12:08:40.856Z,100286.48
2017-12-26T12:11:10.321Z,100279.70
2017-12-26T12:13:39.063Z,100281.51
2017-12-26T12:16:08.515Z,100280.73
2017-12-26T12:18:37.092Z,100277.25
2017-12-26T12:21:05.845Z,100269.09
2017-12-26T12:23:34.573Z,100264.77
2017-12-26T12:26:03.258Z,100265.66
2017-12-26T12:28:32.043Z,100259.44
2017-12-26T12:31:00.691Z,100257.59
2017-12-26T12:33:29.414Z,100258.07
2017-12-26T12:35:58.100Z,100266.51
2017-12-26T12:38:26.744Z,100266.13
2017-12-26T12:40:55.392Z,100267.35
2017-12-26T12:43:24.157Z,100266.09
2017-12-26T12:45:52.843Z,100264.14
2017-12-26T12:48:21.490Z,100262.91
2017-12-26T12:50:50.080Z,100256.83
2017-12-26T12:53:18.750Z,100250.39
2017-12-26T12:55:48.201Z,100245.38
2017-12-26T12:58:17.160Z,100250.03
2017-12-26T13:00:45.878Z,100244.05
2017-12-26T13:03:14.521Z,100236.19
2017-12-26T13:05:43.214Z,100229.96
2017-12-26T13:08:11.882Z,100226.78
2017-12-26T13:10:41.346Z,100232.27
2017-12-26T13:13:10.518Z,100232.06
2017-12-26T13:15:39.224Z,100235.63
2017-12-26T13:18:07.810Z,100236.48
2017-12-26T13:20:36.706Z,100238.23
2017-12-26T13:23:05.386Z,100242.47
2017-12-26T13:25:34.077Z,100239.23
2017-12-26T13:28:02.924Z,100233.80
2017-12-26T13:30:31.646Z,100235.72
2017-12-26T13:33:00.285Z,100228.44
2017-12-26T13:35:29.779Z,100224.64
2017-12-26T13:37:59.196Z,100219.53
2017-12-26T13:40:27.926Z,100219.81
2017-12-26T13:42:57.006Z,100220.57
2017-12-26T13:45:25.715Z,100222.33
2017-12-26T13:47:54.293Z,100211.28
2017-12-26T13:50:22.982Z,100209.28
2017-12-26T13:52:51.626Z,100210.12
2017-12-26T13:55:20.349Z,100217.80
2017-12-26T13:57:49.863Z,100219.87
2017-12-26T14:00:18.605Z,100213.72
2017-12-26T14:02:47.328Z,100210.73
2017-12-26T14:05:16.265Z,100208.30
2017-12-26T14:07:45.732Z,100203.19
2017-12-26T14:10:14.307Z,100204.09
2017-12-26T14:12:43.243Z,100203.25
2017-12-26T14:15:12.658Z,100203.00
2017-12-26T14:17:42.107Z,100200.48
2017-12-26T14:20:11.100Z,100208.55
2017-12-26T14:22:39.784Z,100196.71
2017-12-26T14:25:08.472Z,100201.48
2017-12-26T14:27:37.465Z,100201.02
2017-12-26T14:30:06.143Z,100199.03
2017-12-26T14:32:34.835Z,100199.33
2017-12-26T14:35:03.529Z,100193.44
2017-12-26T14:37:32.205Z,100203.55
2017-12-26T14:40:00.885Z,100195.88
2017-12-26T14:42:29.481Z,100197.00
2017-12-26T14:44:58.175Z,100200.70
2017-12-26T14:47:26.867Z,100197.86
2017-12-26T14:49:55.636Z,100206.04
2017-12-26T14:52:24.302Z,100198.95
2017-12-26T14:54:52.994Z,100197.94
2017-12-26T14:57:22.099Z,100202.72
2017-12-26T14:59:50.685Z,100208.30
2017-12-26T15:02:19.379Z,100204.36
2017-12-26T15:04:48.257Z,100203.63
2017-12-26T15:07:16.951Z,100203.00
2017-12-26T15:09:45.574Z,100202.41
2017-12-26T15:12:14.994Z,100196.66
2017-12-26T15:14:43.714Z,100198.84
2017-12-26T15:17:12.408Z,100203.17
2017-12-26T15:19:41.401Z,100211.40
2017-12-26T15:22:10.185Z,100208.92
2017-12-26T15:24:38.772Z,100202.67
2017-12-26T15:27:07.666Z,100195.11
2017-12-26T15:29:36.339Z,100201.44
2017-12-26T15:32:05.040Z,100199.79
2017-12-26T15:34:33.822Z,100198.23
2017-12-26T15:37:02.447Z,100200.94
2017-12-26T15:39:31.807Z,100203.59
2017-12-26T15:42:00.592Z,100208.17
2017-12-26T15:44:29.277Z,100207.54
2017-12-26T15:46:57.963Z,100211.78
2017-12-26T15:49:27.111Z,100214.72
2017-12-26T15:51:56.567Z,100211.61
2017-12-26T15:54:25.197Z,100224.64
2017-12-26T15:56:53.985Z,100226.95
2017-12-26T15:59:23.445Z,100228.25
2017-12-26T16:01:52.130Z,100220.32
2017-12-26T16:04:21.220Z,100217.08
2017-12-26T16:06:49.808Z,100220.19
2017-12-26T16:09:18.368Z,100213.28
2017-12-26T16:11:47.246Z,100211.79
2017-12-26T16:14:15.914Z,100204.09
2017-12-26T16:16:45.372Z,100201.60
2017-12-26T16:19:14.098Z,100204.88
2017-12-26T16:21:43.557Z,100200.31
2017-12-26T16:24:12.276Z,100194.44
2017-12-26T16:26:42.002Z,100194.80
2017-12-26T16:29:15.098Z,100193.11
2017-12-26T16:31:47.207Z,100198.27
2017-12-26T16:34:15.892Z,100205.27
2017-12-26T16:36:44.522Z,100206.95
2017-12-26T16:39:14.185Z,100202.34
2017-12-26T16:41:42.871Z,100203.43
2017-12-26T16:44:11.557Z,100203.67
2017-12-26T16:46:40.351Z,100208.18
2017-12-26T16:49:09.038Z,100205.80
2017-12-26T16:51:37.613Z,100211.05
2017-12-26T16:54:06.715Z,100212.92
2017-12-26T16:56:35.407Z,100217.53
2017-12-26T16:59:04.081Z,100214.83
2017-12-26T17:01:32.773Z,100213.56
2017-12-26T17:04:01.457Z,100207.60
2017-12-26T17:06:30.142Z,100213.20
2017-12-26T17:09:15.106Z,100213.48
2017-12-26T17:11:43.795Z,100224.70
2017-12-26T17:14:12.481Z,100224.45
2017-12-26T17:16:41.156Z,100225.11
2017-12-26T17:19:09.852Z,100220.47
2017-12-26T17:21:38.539Z,100214.88
2017-12-26T17:24:07.421Z,100213.96
2017-12-26T17:26:36.061Z,100209.71
2017-12-26T17:29:04.692Z,100202.25
2017-12-26T17:31:33.587Z,100200.00
2017-12-26T17:34:02.164Z,100205.16
2017-12-26T17:36:30.849Z,100198.19
2017-12-26T17:38:59.536Z,100200.02
2017-12-26T17:41:28.220Z,100200.09
2017-12-26T17:43:56.904Z,100195.06
2017-12-26T17:46:25.898Z,100197.53
2017-12-26T17:48:54.537Z,100196.45
2017-12-26T17:51:23.993Z,100200.39
2017-12-26T17:53:52.724Z,100195.23
2017-12-26T17:56:22.177Z,100189.89
2017-12-26T17:58:50.862Z,100191.27
2017-12-26T18:01:19.657Z,100187.55
2017-12-26T18:03:48.342Z,100181.48
2017-12-26T18:06:16.918Z,100176.84
2017-12-26T18:08:45.604Z,100176.94
2017-12-26T18:11:14.248Z,100177.62
2017-12-26T18:13:42.940Z,100176.86
2017-12-26T18:16:11.704Z,100163.20
2017-12-26T18:18:41.190Z,100172.52
2017-12-26T18:21:09.868Z,100175.27
2017-12-26T18:23:38.638Z,100173.65
2017-12-26T18:26:07.324Z,100184.30
2017-12-26T18:31:09.512Z,100186.76
2017-12-26T18:33:38.209Z,100185.05
2017-12-26T18:36:06.768Z,100187.91
2017-12-26T18:38:35.642Z,100197.53
2017-12-26T18:41:04.352Z,100195.52
2017-12-26T18:43:33.038Z,100202.33
2017-12-26T18:46:02.031Z,100193.44
2017-12-26T18:48:31.545Z,100185.61
2017-12-26T18:51:00.630Z,100183.14
2017-12-26T18:53:29.426Z,100190.44
2017-12-26T18:55:58.063Z,100188.33
2017-12-26T18:58:27.511Z,100176.95
2017-12-26T19:00:56.673Z,100176.68
2017-12-26T19:03:25.396Z,100179.55
2017-12-26T19:05:54.182Z,100174.85
2017-12-26T19:08:22.880Z,100171.07
2017-12-26T19:10:51.547Z,100177.48
2017-12-26T19:13:20.191Z,100175.87
2017-12-26T19:15:49.848Z,100176.78
2017-12-26T19:18:18.420Z,100179.64
2017-12-26T19:20:47.116Z,100177.09
2017-12-26T19:23:16.084Z,100185.01
2017-12-26T19:25:44.751Z,100181.08
2017-12-26T19:28:13.480Z,100176.16
2017-12-26T19:30:42.265Z,100183.23
2017-12-26T19:33:10.950Z,100186.34
2017-12-26T19:35:39.529Z,100184.38
2017-12-26T19:38:08.320Z,100181.52
2017-12-26T19:40:37.007Z,100183.66
2017-12-26T19:43:05.682Z,100178.20
2017-12-26T19:45:34.587Z,100171.39
2017-12-26T19:48:03.169Z,100168.53
2017-12-26T19:50:31.848Z,100160.70
2017-12-26T19:53:00.800Z,100156.27
2017-12-26T19:55:29.526Z,100158.91
2017-12-26T19:57:58.343Z,100158.89
2017-12-26T20:00:27.413Z,100152.64
2017-12-26T20:02:56.101Z,100152.13
2017-12-26T20:05:24.740Z,100151.89
2017-12-26T20:07:53.568Z,100147.02
2017-12-26T20:10:22.200Z,100157.44
2017-12-26T20:12:52.381Z,100164.40
2017-12-26T20:15:21.062Z,100166.89
2017-12-26T20:17:49.804Z,100168.52
2017-12-26T20:20:18.532Z,100170.67
2017-12-26T20:22:47.489Z,100166.36
2017-12-26T20:25:16.157Z,100167.38
2017-12-26T20:27:45.620Z,100172.05
2017-12-26T20:30:14.296Z,100171.35
2017-12-26T20:32:43.914Z,100165.09
2017-12-26T20:35:12.599Z,100163.55
2017-12-26T20:37:41.384Z,100165.70
2017-12-26T20:40:10.063Z,100169.00
2017-12-26T20:42:38.707Z,100160.96
2017-12-26T20:45:08.195Z,100155.74
2017-12-26T20:47:37.616Z,100157.66
2017-12-26T20:50:06.285Z,100160.46
2017-12-26T20:52:36.055Z,100154.70
2017-12-26T20:55:04.694Z,100153.48
2017-12-26T20:57:33.424Z,100149.72
2017-12-26T21:00:02.417Z,100147.59
2017-12-26T21:02:31.048Z,100147.06
2017-12-26T21:05:00.516Z,100141.77
2017-12-26T21:07:29.112Z,100142.79
2017-12-26T21:09:57.847Z,100147.30
2017-12-26T21:12:26.516Z,100139.84
2017-12-26T21:14:56.211Z,100149.48
2017-12-26T21:17:25.673Z,100146.12
2017-12-26T21:19:54.359Z,100150.16
2017-12-26T21:22:23.315Z,100143.57
2017-12-26T21:24:52.008Z,100137.66
2017-12-26T21:27:20.723Z,100143.73
2017-12-26T21:29:49.412Z,100142.63
2017-12-26T21:32:17.998Z,100140.48
2017-12-26T21:34:46.582Z,100142.85
2017-12-26T21:37:15.921Z,100136.77
2017-12-26T21:39:45.380Z,100135.05
2017-12-26T21:42:14.067Z,100120.34
2017-12-26T21:44:43.051Z,100129.51
2017-12-26T21:47:11.744Z,100127.58
2017-12-26T21:49:40.386Z,100125.98
2017-12-26T21:52:09.027Z,100126.09
2017-12-26T21:54:37.701Z,100121.33
2017-12-26T21:57:06.338Z,100123.34
2017-12-26T21:59:35.827Z,100125.55
2017-12-26T22:02:05.190Z,100128.27
2017-12-26T22:04:33.882Z,100116.77
2017-12-26T22:07:02.609Z,100106.99
2017-12-26T22:09:32.027Z,100112.08
2017-12-26T22:12:00.751Z,100101.14
2017-12-26T22:14:29.484Z,100108.54
2017-12-26T22:16:58.945Z,100110.69
2017-12-26T22:19:27.630Z,100112.88
2017-12-26T22:21:56.416Z,100109.94
2017-12-26T22:24:25.058Z,100106.05
2017-12-26T22:26:53.794Z,100104.56
2017-12-26T22:29:22.472Z,100109.72
2017-12-26T22:31:51.059Z,100102.78
2017-12-26T22:34:19.704Z,100096.86
2017-12-26T22:36:48.796Z,100091.13
2017-12-26T22:39:17.522Z,100089.98
2017-12-26T22:41:46.207Z,100100.45
2017-12-26T22:44:15.200Z,100089.24
2017-12-26T22:46:43.886Z,100091.73
2017-12-26T22:49:12.472Z,100085.23
2017-12-26T22:51:41.466Z,100084.32
2017-12-26T22:54:10.152Z,100082.02
2017-12-26T22:56:38.728Z,100083.29
2017-12-26T22:59:12.814Z,100079.90
2017-12-26T23:01:41.414Z,100080.13
2017-12-26T23:04:10.141Z,100079.60
2017-12-26T23:06:40.013Z,100087.57
2017-12-26T23:09:08.651Z,100087.46
2017-12-26T23:11:38.097Z,100084.37
2017-12-26T23:14:12.359Z,100081.10
2017-12-26T23:16:47.252Z,100088.13
2017-12-26T23:19:16.037Z,100086.14
2017-12-26T23:21:44.715Z,100079.36
2017-12-26T23:27:22.342Z,100070.91
2017-12-26T23:29:56.380Z,100076.61
2017-12-26T23:32:30.668Z,100070.85
2017-12-26T23:35:05.226Z,100062.83
2017-12-26T23:37:40.120Z,100061.70
2017-12-26T23:40:14.590Z,100052.16
2017-12-26T23:42:49.571Z,100047.11
2017-12-26T23:45:24.095Z,100046.12
2017-12-26T23:47:58.307Z,100042.71
2017-12-26T23:50:32.681Z,100044.19
2017-12-26T23:53:07.661Z,100044.69
2017-12-26T23:55:41.778Z,100034.41
2017-12-26T23:58:16.091Z,100043.86
